createdAt,value
2022-10-08T06:30:05.076Z,0
2022-10-08T06:35:47.809Z,0
2022-10-08T06:41:22.728Z,0
2022-10-08T06:46:38.668Z,0
2022-10-08T07:25:39.547Z,0
2022-10-08T07:31:05.924Z,0
2022-10-08T07:47:57.649Z,0
2022-10-08T08:04:36.611Z,0
2022-10-08T08:16:08.056Z,0
2022-10-08T08:21:38.341Z,0
2022-10-08T08:27:02.211Z,0
2022-10-08T08:32:24.925Z,0
2022-10-08T08:37:54.765Z,0
2022-10-08T09:17:16.680Z,0
2022-10-08T09:28:08.504Z,0
2022-10-08T09:44:57.707Z,0
2022-10-08T09:50:43.582Z,0
2022-10-08T09:56:14.839Z,0
2022-10-08T10:01:46.192Z,0
2022-10-08T10:07:08.899Z,0
2022-10-08T10:18:34.024Z,0
2022-10-08T10:23:59.949Z,0
2022-10-08T10:40:37.054Z,0
2022-10-08T11:25:26.886Z,0
2022-10-08T11:30:53.586Z,0
2022-10-08T11:36:38.647Z,0
2022-10-08T11:42:15.999Z,0
2022-10-08T11:53:10.509Z,2.4
2022-10-08T11:59:07.730Z,0
2022-10-08T12:04:25.488Z,0
2022-10-08T12:10:04.358Z,0
2022-10-08T12:15:43.934Z,0
2022-10-08T12:26:55.796Z,0
2022-10-08T12:32:15.246Z,0
2022-10-08T12:38:08.532Z,0
2022-10-08T12:43:42.987Z,0
2022-10-08T12:49:04.378Z,0
2022-10-08T12:54:40.499Z,0
2022-10-08T13:00:05.437Z,0
2022-10-08T13:05:49.926Z,0
2022-10-08T13:11:13.939Z,0
2022-10-08T13:16:57.676Z,0
2022-10-08T13:22:28.480Z,0
2022-10-08T13:28:06.881Z,0
2022-10-08T13:33:38.009Z,0
2022-10-08T13:39:16.365Z,5.9
2022-10-08T13:44:39.535Z,9.6
2022-10-08T13:50:44.160Z,9.6
2022-10-08T13:56:06.085Z,8.4
2022-10-08T14:01:33.345Z,8.4
2022-10-08T14:07:16.230Z,8.4
2022-10-08T14:12:48.608Z,9.6
2022-10-08T14:18:30.508Z,8.4
2022-10-08T14:24:03.820Z,3.6
2022-10-08T14:29:29.927Z,7.2
2022-10-08T14:35:01.601Z,2.4
2022-10-08T15:42:08.705Z,15.6
2022-10-08T15:47:58.682Z,11.9
2022-10-08T15:53:23.774Z,9.6
2022-10-08T15:59:10.187Z,7.2
2022-10-08T16:04:34.255Z,7.2
2022-10-08T16:10:16.273Z,8.4
2022-10-08T16:15:52.092Z,8.4
2022-10-08T16:21:26.766Z,8.4
2022-10-08T16:27:08.320Z,8.4
2022-10-08T16:43:39.561Z,7.2
2022-10-08T16:49:17.329Z,10.7
2022-10-08T16:54:54.492Z,5.9
2022-10-08T17:00:43.840Z,5.9
2022-10-08T17:05:51.025Z,8.4
2022-10-08T17:11:37.841Z,7.2
2022-10-08T17:44:57.889Z,4.8
2022-10-08T17:50:44.667Z,3.6
2022-10-08T17:56:14.590Z,5.9
2022-10-08T18:01:51.104Z,5.9
2022-10-08T18:07:24.856Z,4.8
2022-10-08T18:13:13.022Z,3.6
2022-10-08T18:18:40.730Z,3.6
2022-10-08T18:24:02.298Z,4.8
2022-10-08T18:29:35.611Z,4.8
2022-10-08T18:35:27.447Z,2.4
2022-10-08T18:41:09.662Z,2.4
2022-10-08T18:46:21.253Z,2.4
2022-10-08T18:52:21.329Z,0
2022-10-08T18:57:42.770Z,3.6
2022-10-08T19:03:07.632Z,4.8
2022-10-08T19:08:54.085Z,0
2022-10-08T19:14:16.845Z,0
2022-10-08T19:19:43.452Z,4.8
2022-10-08T19:25:37.318Z,4.8
2022-10-08T19:30:51.242Z,0
2022-10-08T19:36:39.984Z,0
2022-10-08T19:42:08.164Z,0
2022-10-08T19:47:48.637Z,0
2022-10-08T19:53:13.768Z,0
2022-10-08T19:59:00.147Z,0
2022-10-08T20:04:16.298Z,0
2022-10-08T20:09:57.709Z,0
2022-10-08T20:15:25.943Z,0
2022-10-08T20:20:59.735Z,0
2022-10-08T20:26:32.832Z,0
2022-10-08T20:31:55.252Z,0
2022-10-08T20:37:28.215Z,0
2022-10-08T20:48:45.506Z,0
2022-10-08T20:54:26.493Z,2.4
2022-10-08T20:59:40.812Z,2.4
2022-10-08T21:05:16.503Z,3.6
2022-10-08T21:10:49.295Z,2.4
2022-10-08T21:16:25.294Z,0
2022-10-08T21:22:18.746Z,0
2022-10-08T21:27:40.000Z,0
2022-10-08T21:33:30.959Z,3.6
2022-10-08T21:38:38.228Z,2.4
2022-10-08T21:44:25.849Z,0
2022-10-08T21:49:52.682Z,3.6
2022-10-08T21:55:34.521Z,0
2022-10-08T22:01:06.498Z,2.4
2022-10-08T22:06:24.337Z,2.4
2022-10-08T22:12:26.274Z,4.8
2022-10-08T22:17:35.479Z,4.8
2022-10-08T22:23:06.844Z,3.6
2022-10-08T22:28:38.852Z,3.6
2022-10-08T22:34:13.788Z,4.8
2022-10-08T22:40:03.775Z,3.6
2022-10-08T22:45:49.105Z,4.8
2022-10-08T22:51:04.223Z,4.8
2022-10-08T22:56:39.618Z,4.8
2022-10-08T23:02:18.265Z,4.8
2022-10-08T23:08:00.958Z,3.6
2022-10-08T23:13:23.518Z,3.6
2022-10-08T23:18:47.077Z,7.2
2022-10-08T23:24:29.357Z,7.2
2022-10-08T23:29:54.478Z,7.2
2022-10-08T23:35:41.718Z,3.6
2022-10-08T23:41:15.000Z,2.4
2022-10-08T23:46:51.473Z,3.6
2022-10-08T23:52:19.882Z,4.8
2022-10-08T23:57:43.323Z,4.8
